createdAt,value
2015-12-25T00:00:31.426Z,87.6
2015-12-25T00:01:31.366Z,87.3
2015-12-25T00:02:31.322Z,87.1
2015-12-25T00:03:31.263Z,86.9
2015-12-25T00:04:31.218Z,87.1
2015-12-25T00:05:31.158Z,87.1
2015-12-25T00:06:31.115Z,87.1
2015-12-25T00:07:31.055Z,87.1
2015-12-25T00:08:31.073Z,86.9
2015-12-25T00:09:30.950Z,86.6
2015-12-25T00:10:31.328Z,86.6
2015-12-25T00:11:30.847Z,86.4
2015-12-25T00:12:30.803Z,86.5
2015-12-25T00:13:30.744Z,86.5
2015-12-25T00:14:30.684Z,86.3
2015-12-25T00:15:30.623Z,86
2015-12-25T00:16:30.579Z,86.1
2015-12-25T00:17:30.535Z,86.2
2015-12-25T00:18:30.475Z,86.3
2015-12-25T00:19:30.432Z,86.3
2015-12-25T00:20:30.372Z,86.3
2015-12-25T00:21:30.327Z,86.1
2015-12-25T00:22:30.268Z,85.9
2015-12-25T00:23:30.224Z,85.6
2015-12-25T00:24:30.163Z,85.7
2015-12-25T00:25:30.119Z,85.5
2015-12-25T00:26:30.060Z,85.3
2015-12-25T00:27:30.235Z,85.3
2015-12-25T00:28:29.956Z,85.2
2015-12-25T00:29:29.912Z,84.9
2015-12-25T00:30:29.852Z,84.7
2015-12-25T00:31:29.793Z,84.6
2015-12-25T00:32:29.732Z,84.6
2015-12-25T00:33:29.693Z,84.5
2015-12-25T00:34:29.649Z,84.4
2015-12-25T00:35:29.573Z,84.4
2015-12-25T00:36:29.530Z,84.2
2015-12-25T00:37:29.485Z,84.3
2015-12-25T00:38:29.457Z,84.1
2015-12-25T00:39:29.601Z,84.3
2015-12-25T00:40:29.322Z,83.8
2015-12-25T00:41:29.278Z,84
2015-12-25T00:42:29.218Z,83.9
2015-12-25T00:43:29.158Z,84.2
2015-12-25T00:44:29.099Z,83.9
2015-12-25T00:45:29.054Z,84
2015-12-25T00:46:29.007Z,84.2
2015-12-25T00:47:28.948Z,84.3
2015-12-25T00:48:28.887Z,84.3
2015-12-25T00:49:28.876Z,84.3
2015-12-25T00:50:28.800Z,84.3
2015-12-25T00:51:28.756Z,84.4
2015-12-25T00:52:28.681Z,84.5
2015-12-25T00:53:28.636Z,84.6
2015-12-25T00:54:28.576Z,84.3
2015-12-25T00:55:28.532Z,84.3
2015-12-25T00:56:28.504Z,84.1
2015-12-25T00:57:28.445Z,84.3
2015-12-25T00:58:28.369Z,84.2
2015-12-25T00:59:28.325Z,84.2
2015-12-25T01:00:28.264Z,84.3
2015-12-25T01:01:28.205Z,84.2
2015-12-25T01:02:28.161Z,84.1
2015-12-25T01:03:28.117Z,84.1
2015-12-25T01:04:28.292Z,84.3
2015-12-25T01:05:27.997Z,84.6
2015-12-25T01:06:27.953Z,84.4
2015-12-25T01:07:27.908Z,84.6
2015-12-25T01:08:27.849Z,84.3
2015-12-25T01:09:28.024Z,84.4
2015-12-25T01:10:27.730Z,84.2
2015-12-25T01:11:27.920Z,84
2015-12-25T01:12:27.641Z,84.3
2015-12-25T01:13:27.581Z,84.4
2015-12-25T01:14:27.755Z,84.2
2015-12-25T01:15:27.478Z,83.8
2015-12-25T01:16:27.434Z,83.8
2015-12-25T01:17:27.374Z,83.8
2015-12-25T01:18:27.329Z,83.5
2015-12-25T01:19:27.270Z,83.6
2015-12-25T01:20:27.225Z,83.6
2015-12-25T01:21:27.166Z,83.6
2015-12-25T01:22:27.106Z,83.5
2015-12-25T01:23:27.063Z,83.6
2015-12-25T01:24:27.034Z,83.5
2015-12-25T01:25:26.959Z,83.4
2015-12-25T01:26:26.899Z,83.3
2015-12-25T01:27:26.855Z,83.2
2015-12-25T01:28:26.811Z,83
2015-12-25T01:29:26.733Z,83.9
2015-12-25T01:30:26.688Z,86.5
2015-12-25T01:31:26.628Z,88.8
2015-12-25T01:32:26.584Z,92.4
2015-12-25T01:33:26.525Z,94.6
2015-12-25T01:34:26.699Z,94
2015-12-25T01:35:26.421Z,94.6
2015-12-25T01:36:26.439Z,94.7
2015-12-25T01:37:26.317Z,95.5
2015-12-25T01:38:26.257Z,95.4
2015-12-25T01:39:26.197Z,95.6
2015-12-25T01:40:26.138Z,96.4
2015-12-25T01:41:26.094Z,96.7
2015-12-25T01:42:26.033Z,96.3
2015-12-25T01:43:25.974Z,96.8
2015-12-25T01:44:25.914Z,97.5
2015-12-25T01:45:26.152Z,97.7
2015-12-25T01:46:25.811Z,98.1
2015-12-25T01:47:25.766Z,98.1
2015-12-25T01:48:25.707Z,98.1
2015-12-25T01:49:25.646Z,97.6
2015-12-25T01:50:25.837Z,98.2
2015-12-25T01:51:25.543Z,98
2015-12-25T01:52:25.482Z,97.7
2015-12-25T01:53:25.424Z,97.7
2015-12-25T01:54:25.363Z,97.7
2015-12-25T01:55:25.319Z,98.1
2015-12-25T01:56:25.276Z,98.2
2015-12-25T01:57:25.200Z,98.5
2015-12-25T01:58:25.156Z,98.2
2015-12-25T01:59:25.096Z,97.7
2015-12-25T02:00:25.067Z,97.6
2015-12-25T02:01:24.992Z,97.2
2015-12-25T02:02:24.937Z,97.3
2015-12-25T02:03:24.877Z,97.1
2015-12-25T02:04:24.833Z,97.1
2015-12-25T02:05:24.774Z,96.9
2015-12-25T02:06:24.776Z,96.4
2015-12-25T02:07:24.670Z,96.8
2015-12-25T02:08:24.626Z,97.1
2015-12-25T02:09:24.544Z,96.7
2015-12-25T02:10:24.706Z,97
2015-12-25T02:11:24.405Z,96.6
2015-12-25T02:12:24.364Z,96.6
2015-12-25T02:13:24.324Z,96.6
2015-12-25T02:14:24.461Z,96.5
2015-12-25T02:15:24.163Z,96.9
2015-12-25T02:16:24.114Z,96.4
2015-12-25T02:17:24.051Z,96.7
2015-12-25T02:18:23.988Z,96.7
2015-12-25T02:19:23.924Z,96.5
2015-12-25T02:20:23.878Z,96.9
2015-12-25T02:21:23.816Z,97.2
2015-12-25T02:22:23.989Z,97
2015-12-25T02:23:23.709Z,97.2
2015-12-25T02:24:23.648Z,97.7
2015-12-25T02:25:23.602Z,97.8
2015-12-25T02:26:23.542Z,98
2015-12-25T02:27:23.481Z,97.8
2015-12-25T02:28:23.437Z,98.3
2015-12-25T02:29:23.376Z,98.5
2015-12-25T02:30:23.317Z,98.2
2015-12-25T02:31:23.273Z,98
2015-12-25T02:32:23.213Z,97.7
2015-12-25T02:33:23.153Z,98.2
2015-12-25T02:34:23.108Z,98.5
2015-12-25T02:35:23.080Z,98.6
2015-12-25T02:36:22.989Z,99.1
2015-12-25T02:37:22.976Z,99
2015-12-25T02:38:22.884Z,99.6
2015-12-25T02:39:22.842Z,99.9
2015-12-25T02:40:22.781Z,99.9
2015-12-25T02:41:22.721Z,99.9
2015-12-25T02:42:22.895Z,99.9
2015-12-25T02:43:22.617Z,99.9
2015-12-25T02:44:22.558Z,99.9
2015-12-25T02:45:22.497Z,99.9
2015-12-25T02:46:22.672Z,99.9
2015-12-25T02:47:22.394Z,99.9
2015-12-25T02:48:22.350Z,99.9
2015-12-25T02:49:22.289Z,99.9
2015-12-25T02:50:22.229Z,99.9
2015-12-25T02:51:22.169Z,99.9
2015-12-25T02:52:22.126Z,99.9
2015-12-25T02:53:22.472Z,99.9
2015-12-25T02:54:22.007Z,99.9
2015-12-25T02:55:21.962Z,99.9
2015-12-25T02:56:21.903Z,99.9
2015-12-25T02:57:21.843Z,99.7
2015-12-25T02:58:21.783Z,99.8
2015-12-25T02:59:21.739Z,99.6
2015-12-25T03:00:21.695Z,99.6
2015-12-25T03:01:21.635Z,99.4
2015-12-25T03:02:21.606Z,99.6
2015-12-25T03:03:21.515Z,99.5
2015-12-25T03:04:21.487Z,99.7
2015-12-25T03:05:21.412Z,99.9
2015-12-25T03:06:21.351Z,99.9
2015-12-25T03:07:21.292Z,99.9
2015-12-25T03:08:21.498Z,99.9
2015-12-25T03:09:21.203Z,99.7
2015-12-25T03:10:21.144Z,99.9
2015-12-25T03:11:21.099Z,99.9
2015-12-25T03:12:21.040Z,99.8
2015-12-25T03:13:20.980Z,99.6
2015-12-25T03:14:20.921Z,99.3
2015-12-25T03:15:20.876Z,99.3
2015-12-25T03:16:20.817Z,99.1
2015-12-25T03:17:20.757Z,99.6
2015-12-25T03:18:20.712Z,99.6
2015-12-25T03:19:20.653Z,99.6
2015-12-25T03:20:20.640Z,99
2015-12-25T03:21:20.565Z,98.4
2015-12-25T03:22:20.489Z,98.7
2015-12-25T03:23:20.445Z,98.8
2015-12-25T03:24:20.385Z,98.6
2015-12-25T03:25:20.339Z,98.5
2015-12-25T03:26:20.278Z,98.5
2015-12-25T03:27:20.219Z,98.3
2015-12-25T03:28:20.159Z,97.7
2015-12-25T03:29:20.115Z,97.6
2015-12-25T03:30:20.055Z,97.5
2015-12-25T03:31:20.012Z,97.5
2015-12-25T03:32:19.951Z,97.5
2015-12-25T03:33:19.907Z,97.2
2015-12-25T03:34:19.848Z,97.1
2015-12-25T03:35:19.788Z,96.8
2015-12-25T03:36:19.745Z,96.7
2015-12-25T03:37:19.684Z,95.6
2015-12-25T03:38:19.625Z,96
2015-12-25T03:39:19.580Z,96.2
2015-12-25T03:40:19.520Z,95.6
2015-12-25T03:41:19.476Z,95.1
2015-12-25T03:42:19.416Z,94.5
2015-12-25T03:43:19.357Z,94.8
2015-12-25T03:44:19.297Z,94.9
2015-12-25T03:45:19.253Z,94.9
2015-12-25T03:46:19.209Z,94.2
2015-12-25T03:47:19.150Z,93.8
2015-12-25T03:48:19.120Z,94
2015-12-25T03:49:19.030Z,94.4
2015-12-25T03:50:18.986Z,94.6
2015-12-25T03:51:18.926Z,94.4
2015-12-25T03:52:18.881Z,94.1
2015-12-25T03:53:18.822Z,94
2015-12-25T03:54:18.794Z,94.3
2015-12-25T03:55:18.952Z,94.4
2015-12-25T03:56:18.658Z,94
2015-12-25T03:57:18.597Z,93.2
2015-12-25T03:58:18.570Z,93
2015-12-25T03:59:18.510Z,90.5
2015-12-25T04:00:18.450Z,90.6
2015-12-25T04:01:18.391Z,88.7
2015-12-25T04:02:18.346Z,89.1
2015-12-25T04:03:18.286Z,88
2015-12-25T04:04:18.242Z,89.4
2015-12-25T04:05:18.182Z,88.9
2015-12-25T04:06:18.138Z,88.4
2015-12-25T04:07:18.297Z,87.8
2015-12-25T04:08:18.018Z,88.6
2015-12-25T04:09:17.960Z,89.1
2015-12-25T04:10:17.899Z,88.3
2015-12-25T04:11:17.855Z,88.4
2015-12-25T04:12:17.796Z,87
2015-12-25T04:13:17.766Z,87.6
2015-12-25T04:14:17.688Z,86.1
2015-12-25T04:15:17.629Z,86.5
2015-12-25T04:16:17.585Z,85
2015-12-25T04:17:17.525Z,86.6
2015-12-25T04:18:17.481Z,85.4
2015-12-25T04:19:17.421Z,85.1
2015-12-25T04:20:17.377Z,84.7
2015-12-25T04:21:17.318Z,84.6
2015-12-25T04:22:17.258Z,84.8
2015-12-25T04:23:17.198Z,85.7
2015-12-25T04:24:17.154Z,85.4
2015-12-25T04:25:16.344Z,85.7
2015-12-25T04:26:17.049Z,83.5
2015-12-25T04:27:16.990Z,83.2
2015-12-25T04:28:16.930Z,80.8
2015-12-25T04:29:17.105Z,80.9
2015-12-25T04:30:16.827Z,82.9
2015-12-25T04:31:16.767Z,81
2015-12-25T04:32:16.707Z,81.7
2015-12-25T04:33:16.648Z,81.1
2015-12-25T04:34:16.618Z,81.8
2015-12-25T04:35:16.543Z,82.8
2015-12-25T04:36:16.483Z,80.1
2015-12-25T04:37:16.424Z,81.9
2015-12-25T04:38:16.442Z,80.2
2015-12-25T04:39:16.304Z,81.7
2015-12-25T04:40:16.276Z,80.9
2015-12-25T04:41:16.215Z,80.9
2015-12-25T04:42:16.156Z,80.4
2015-12-25T04:43:16.096Z,82.2
2015-12-25T04:44:16.053Z,80.3
2015-12-25T04:45:15.993Z,80.4
2015-12-25T04:46:15.948Z,76.9
2015-12-25T04:47:15.889Z,76.6
2015-12-25T04:48:15.829Z,77.7
2015-12-25T04:49:15.770Z,77.1
2015-12-25T04:50:15.756Z,76.9
2015-12-25T04:51:15.665Z,77.6
2015-12-25T04:52:15.606Z,75.8
2015-12-25T04:53:15.545Z,77.6
2015-12-25T04:54:15.487Z,78.4
2015-12-25T04:55:15.442Z,77.6
2015-12-25T04:56:15.381Z,76.8
2015-12-25T04:57:15.166Z,78.4
2015-12-25T04:58:15.278Z,80.3
2015-12-25T04:59:15.219Z,79.2
2015-12-25T05:00:15.175Z,79.7
2015-12-25T05:01:15.115Z,76.6
2015-12-25T05:02:15.053Z,78.1
2015-12-25T05:03:15.008Z,78.4
2015-12-25T05:04:14.948Z,76.3
2015-12-25T05:05:14.888Z,75.8
2015-12-25T05:06:14.844Z,76.5
2015-12-25T05:07:14.800Z,76.9
2015-12-25T05:08:13.990Z,79.7
2015-12-25T05:09:14.681Z,77.4
2015-12-25T05:10:14.621Z,76.8
2015-12-25T05:11:14.577Z,76.1
2015-12-25T05:12:14.516Z,78.5
2015-12-25T05:13:14.691Z,77.9
2015-12-25T05:14:14.413Z,78.7
2015-12-25T05:15:14.353Z,79.5
2015-12-25T05:16:14.293Z,80.4
2015-12-25T05:17:14.266Z,77.6
2015-12-25T05:18:14.189Z,78
2015-12-25T05:19:14.146Z,77.8
2015-12-25T05:20:14.102Z,78.5
2015-12-25T05:21:14.026Z,78.6
2015-12-25T05:22:13.982Z,79
2015-12-25T05:23:13.922Z,76.8
2015-12-25T05:24:13.877Z,76.3
2015-12-25T05:25:13.802Z,78.5
2015-12-25T05:26:13.759Z,78
2015-12-25T05:27:13.699Z,76.1
2015-12-25T05:28:13.655Z,75.6
2015-12-25T05:29:13.594Z,75.5
2015-12-25T05:30:13.535Z,75.8
2015-12-25T05:31:13.490Z,76.4
2015-12-25T05:32:13.432Z,74.7
2015-12-25T05:33:13.371Z,75.9
2015-12-25T05:34:13.312Z,76.5
2015-12-25T05:35:13.267Z,76.7
2015-12-25T05:36:13.254Z,76.2
2015-12-25T05:37:13.196Z,76.8
2015-12-25T05:38:13.104Z,75.9
2015-12-25T05:39:13.044Z,77.1
2015-12-25T05:40:12.985Z,77.3
2015-12-25T05:41:12.956Z,77.4
2015-12-25T05:42:12.880Z,77.6
2015-12-25T05:43:13.070Z,78.6
2015-12-25T05:44:12.777Z,78.2
2015-12-25T05:45:12.717Z,79.1
2015-12-25T05:46:12.657Z,79.7
2015-12-25T05:47:12.660Z,78.8
2015-12-25T05:48:12.601Z,79.2
2015-12-25T05:49:12.507Z,78.8
2015-12-25T05:50:12.431Z,79
2015-12-25T05:51:12.387Z,79.1
2015-12-25T05:52:12.326Z,79.7
2015-12-25T05:53:12.299Z,78.7
2015-12-25T05:54:12.208Z,79.8
2015-12-25T05:55:12.163Z,79.6
2015-12-25T05:56:12.103Z,79.8
2015-12-25T05:57:12.060Z,80.2
2015-12-25T05:58:12.000Z,80.5
2015-12-25T05:59:11.941Z,80.5
2015-12-25T06:00:11.896Z,80.4
2015-12-25T06:01:11.837Z,80.5
2015-12-25T06:02:11.776Z,80.5
2015-12-25T06:03:11.732Z,80.1
2015-12-25T06:04:11.673Z,80
2015-12-25T06:05:11.628Z,80.8
2015-12-25T06:06:11.601Z,81.1
2015-12-25T06:07:11.540Z,80.9
2015-12-25T06:08:11.449Z,81.3
2015-12-25T06:09:11.406Z,80.5
2015-12-25T06:10:11.346Z,80.9
2015-12-25T06:11:11.520Z,80.5
2015-12-25T06:12:11.242Z,80.9
2015-12-25T06:13:11.182Z,81.8
2015-12-25T06:14:11.122Z,81.5
2015-12-25T06:15:11.062Z,81.4
2015-12-25T06:16:11.253Z,81.8
2015-12-25T06:17:10.973Z,81.7
2015-12-25T06:18:10.914Z,82
2015-12-25T06:19:10.839Z,81.9
2015-12-25T06:20:10.826Z,82.6
2015-12-25T06:21:10.767Z,82.2
2015-12-25T06:22:10.785Z,82.6
2015-12-25T06:23:10.787Z,83.3
2015-12-25T06:24:10.806Z,82.8
2015-12-25T06:25:10.558Z,83.1
2015-12-25T06:26:10.780Z,83.2
2015-12-25T06:27:10.408Z,82.9
2015-12-25T06:28:10.378Z,82
2015-12-25T06:29:10.492Z,82.6
2015-12-25T06:30:10.259Z,82.1
2015-12-25T06:31:10.184Z,82.1
2015-12-25T06:32:10.140Z,82
2015-12-25T06:33:10.081Z,82.6
2015-12-25T06:34:10.036Z,83
2015-12-25T06:35:09.976Z,83.6
2015-12-25T06:36:09.913Z,83
2015-12-25T06:37:09.885Z,82.3
2015-12-25T06:38:09.841Z,82.2
2015-12-25T06:39:09.765Z,82.8
2015-12-25T06:40:09.691Z,82.5
2015-12-25T06:41:09.647Z,82.6
2015-12-25T06:42:09.602Z,82.5
2015-12-25T06:43:09.542Z,82.2
2015-12-25T06:44:09.482Z,82.7
2015-12-25T06:45:09.422Z,83.2
2015-12-25T06:46:09.379Z,83.1
2015-12-25T06:47:09.319Z,82.9
2015-12-25T06:48:09.260Z,83
2015-12-25T06:49:09.199Z,83.5
2015-12-25T06:50:09.422Z,83.5
2015-12-25T06:51:09.096Z,83.3
2015-12-25T06:52:09.052Z,83.3
2015-12-25T06:53:08.991Z,83.5
2015-12-25T06:54:09.010Z,84.6
2015-12-25T06:55:08.935Z,84.1
2015-12-25T06:56:08.827Z,84
2015-12-25T06:57:08.768Z,84
2015-12-25T06:58:08.740Z,84.4
2015-12-25T06:59:08.899Z,85.1
2015-12-25T07:00:08.604Z,84.9
2015-12-25T07:01:08.560Z,84.8
2015-12-25T07:02:08.501Z,84.7
2015-12-25T07:03:08.504Z,84.4
2015-12-25T07:04:08.382Z,84.7
2015-12-25T07:05:08.431Z,84.7
2015-12-25T07:06:08.324Z,84.8
2015-12-25T07:07:08.232Z,85.2
2015-12-25T07:08:08.174Z,85.2
2015-12-25T07:09:08.146Z,84.8
2015-12-25T07:10:08.070Z,85.1
2015-12-25T07:11:08.010Z,84.9
2015-12-25T07:12:07.965Z,85.3
2015-12-25T07:13:07.906Z,84.9
2015-12-25T07:14:07.876Z,85
2015-12-25T07:15:07.895Z,85
2015-12-25T07:16:07.820Z,85.6
2015-12-25T07:17:07.760Z,86.3
2015-12-25T07:18:07.623Z,87.2
2015-12-25T07:19:07.610Z,87.1
2015-12-25T07:20:07.518Z,87.7
2015-12-25T07:21:07.459Z,88.9
2015-12-25T07:22:07.415Z,88.4
2015-12-25T07:23:07.356Z,88
2015-12-25T07:24:07.295Z,88
2015-12-25T07:25:07.251Z,88.5
2015-12-25T07:26:07.189Z,90.2
2015-12-25T07:27:07.128Z,89.9
2015-12-25T07:28:07.366Z,90.4
2015-12-25T07:29:07.040Z,89.8
2015-12-25T07:30:06.965Z,89.9
2015-12-25T07:31:06.921Z,89.3
2015-12-25T07:32:06.862Z,88.7
2015-12-25T07:33:06.802Z,88.1
2015-12-25T07:34:06.758Z,87.2
2015-12-25T07:35:06.698Z,87.3
2015-12-25T07:36:06.639Z,87.8
2015-12-25T07:37:06.594Z,87.4
2015-12-25T07:38:06.644Z,88.5
2015-12-25T07:39:06.490Z,88.1
2015-12-25T07:40:06.415Z,87.1
2015-12-25T07:41:06.403Z,88.1
2015-12-25T07:42:06.315Z,88.1
2015-12-25T07:43:06.272Z,87.6
2015-12-25T07:44:06.289Z,87
2015-12-25T07:45:06.183Z,87.2
2015-12-25T07:46:06.138Z,87
2015-12-25T07:47:06.157Z,87.1
2015-12-25T07:48:05.988Z,87
2015-12-25T07:49:05.944Z,86.5
2015-12-25T07:50:05.884Z,86.3
2015-12-25T07:51:05.840Z,87.2
2015-12-25T07:52:05.780Z,86.8
2015-12-25T07:53:05.752Z,87
2015-12-25T07:54:05.692Z,87.6
2015-12-25T07:55:05.616Z,86.9
2015-12-25T07:56:05.556Z,87
2015-12-25T07:57:05.512Z,86.7
2015-12-25T07:58:05.452Z,86.4
2015-12-25T07:59:05.502Z,86.8
2015-12-25T08:00:05.411Z,87.4
2015-12-25T08:01:05.274Z,86.7
2015-12-25T08:02:05.230Z,86.5
2015-12-25T08:03:05.185Z,86.2
2015-12-25T08:04:05.141Z,86.4
2015-12-25T08:05:05.129Z,86.5
2015-12-25T08:06:05.006Z,86.6
2015-12-25T08:07:05.181Z,86
2015-12-25T08:08:04.993Z,86.5
2015-12-25T08:09:04.839Z,86.4
2015-12-25T08:10:04.826Z,86.6
2015-12-25T08:11:04.829Z,86.7
2015-12-25T08:12:04.692Z,87.1
2015-12-25T08:13:04.865Z,87.1
2015-12-25T08:14:04.572Z,87.2
2015-12-25T08:15:04.591Z,86.4
2015-12-25T08:16:04.468Z,86.7
2015-12-25T08:17:04.393Z,87.1
2015-12-25T08:18:04.334Z,87.6
2015-12-25T08:19:04.289Z,87.6
2015-12-25T08:20:04.245Z,87.3
2015-12-25T08:21:04.185Z,86.8
2015-12-25T08:22:04.126Z,86.4
2015-12-25T08:23:04.112Z,86.5
2015-12-25T08:24:04.021Z,86.8
2015-12-25T08:25:03.978Z,87.4
2015-12-25T08:26:03.901Z,87.1
2015-12-25T08:27:03.889Z,87.9
2015-12-25T08:28:03.798Z,87.5
2015-12-25T08:29:03.770Z,87
2015-12-25T08:30:03.928Z,87.7
2015-12-25T08:31:03.697Z,87.5
2015-12-25T08:32:03.575Z,87.6
2015-12-25T08:33:03.530Z,87.8
2015-12-25T08:34:02.783Z,87.7
2015-12-25T08:35:03.426Z,88
2015-12-25T08:36:03.414Z,87.7
2015-12-25T08:37:03.323Z,87.4
2015-12-25T08:38:03.247Z,87.5
2015-12-25T08:39:03.219Z,86.9
2015-12-25T08:40:03.144Z,86.1
2015-12-25T08:41:03.084Z,84.9
2015-12-25T08:42:03.039Z,82.6
2015-12-25T08:43:02.995Z,79.6
2015-12-25T08:44:02.935Z,78
2015-12-25T08:45:02.876Z,76.8
2015-12-25T08:46:02.816Z,76.1
2015-12-25T08:47:02.772Z,75.8
2015-12-25T08:48:02.775Z,75
2015-12-25T08:49:03.136Z,74.8
2015-12-25T08:50:02.624Z,74.1
2015-12-25T08:51:02.595Z,73.6
2015-12-25T08:52:01.769Z,73.9
2015-12-25T08:53:02.460Z,74.5
2015-12-25T08:54:02.416Z,74.6
2015-12-25T08:55:02.355Z,73.8
2015-12-25T08:56:02.422Z,73.5
2015-12-25T08:57:02.250Z,72.9
2015-12-25T08:58:02.252Z,71.3
2015-12-25T08:59:02.145Z,71.7
2015-12-25T09:00:02.085Z,70.5
2015-12-25T09:01:02.041Z,68.4
2015-12-25T09:02:01.982Z,66.9
2015-12-25T09:03:01.938Z,67.3
2015-12-25T09:04:01.924Z,66.6
2015-12-25T09:05:01.834Z,67.2
2015-12-25T09:06:01.774Z,68.6
2015-12-25T09:07:01.730Z,70.4
2015-12-25T09:08:01.670Z,71.9
2015-12-25T09:09:01.704Z,72.7
2015-12-25T09:10:01.566Z,74.2
2015-12-25T09:11:01.507Z,73.6
2015-12-25T09:12:01.463Z,73.8
2015-12-25T09:13:01.419Z,72.4
2015-12-25T09:14:01.374Z,70.2
2015-12-25T09:15:01.409Z,67.6
2015-12-25T09:16:01.333Z,67
2015-12-25T09:17:01.210Z,64.5
2015-12-25T09:18:01.213Z,64
2015-12-25T09:19:01.107Z,64.1
2015-12-25T09:20:01.046Z,61.6
2015-12-25T09:21:01.018Z,59.7
2015-12-25T09:22:00.959Z,58.2
2015-12-25T09:23:00.962Z,59.5
2015-12-25T09:24:00.854Z,61.2
2015-12-25T09:25:00.811Z,61.2
2015-12-25T09:26:00.751Z,64.1
2015-12-25T09:27:00.707Z,66.1
2015-12-25T09:28:00.693Z,64.5
2015-12-25T09:29:00.665Z,64.8
2015-12-25T09:30:00.543Z,60.5
2015-12-25T09:31:00.484Z,60
2015-12-25T09:32:00.486Z,58.4
2015-12-25T09:33:00.490Z,55.9
2015-12-25T09:34:00.351Z,56.1
2015-12-25T09:35:00.323Z,54.5
2015-12-25T09:36:00.231Z,54.8
2015-12-25T09:37:00.187Z,54.6
2015-12-25T09:38:00.142Z,54.1
2015-12-25T09:39:00.099Z,54.1
2015-12-25T09:40:00.039Z,52.4
2015-12-25T09:41:00.073Z,54.1
2015-12-25T09:41:59.967Z,54.5
2015-12-25T09:42:59.923Z,54
2015-12-25T09:43:59.862Z,53.4
2015-12-25T09:44:59.819Z,55.2
2015-12-25T09:45:59.759Z,57.8
2015-12-25T09:46:59.715Z,60.1
2015-12-25T09:48:00.014Z,61.6
2015-12-25T09:48:59.795Z,63.4
2015-12-25T09:49:59.611Z,63.6
2015-12-25T09:50:59.722Z,63.9
2015-12-25T09:51:59.460Z,64.5
2015-12-25T09:52:59.400Z,65
2015-12-25T09:53:59.341Z,64.5
2015-12-25T09:54:59.297Z,64.7
2015-12-25T09:55:59.253Z,67.2
2015-12-25T09:56:59.192Z,69.3
2015-12-25T09:57:59.133Z,69.9
2015-12-25T09:58:59.073Z,71.8
2015-12-25T09:59:59.075Z,72.4
2015-12-25T10:00:59.031Z,73.3
2015-12-25T10:01:58.956Z,73.8
2015-12-25T10:02:58.866Z,74.8
2015-12-25T10:03:58.822Z,74.5
2015-12-25T10:04:58.761Z,75.3
2015-12-25T10:05:58.702Z,75.3
2015-12-25T10:06:58.891Z,76.5
2015-12-25T10:07:58.597Z,76.2
2015-12-25T10:08:58.647Z,76.4
2015-12-25T10:09:58.963Z,76.4
2015-12-25T10:10:58.434Z,76.9
2015-12-25T10:11:58.405Z,76.4
2015-12-25T10:12:58.330Z,76.4
2015-12-25T10:13:58.286Z,76.6
2015-12-25T10:14:58.227Z,76.5
2015-12-25T10:15:58.182Z,76.9
2015-12-25T10:16:58.122Z,75.9
2015-12-25T10:17:58.078Z,76.5
2015-12-25T10:18:58.019Z,76.8
2015-12-25T10:19:57.958Z,76.8
2015-12-25T10:20:57.915Z,76
2015-12-25T10:21:57.871Z,75.8
2015-12-25T10:22:57.795Z,75.8
2015-12-25T10:23:57.735Z,75.3
2015-12-25T10:24:57.754Z,75.1
2015-12-25T10:25:57.646Z,72.4
2015-12-25T10:26:57.587Z,71.8
2015-12-25T10:27:57.527Z,72.4
2015-12-25T10:28:57.468Z,73.1
2015-12-25T10:29:57.423Z,73.1
2015-12-25T10:30:57.379Z,70.2
2015-12-25T10:31:57.554Z,66.3
2015-12-25T10:32:57.276Z,62.5
2015-12-25T10:33:57.231Z,61.2
2015-12-25T10:34:57.165Z,58
2015-12-25T10:35:57.122Z,55.9
2015-12-25T10:36:57.061Z,56.1
2015-12-25T10:37:57.003Z,60.2
2015-12-25T10:38:56.959Z,64.8
2015-12-25T10:39:56.929Z,68.1
2015-12-25T10:40:56.867Z,70.3
2015-12-25T10:41:56.791Z,71.1
2015-12-25T10:42:56.747Z,70.1
2015-12-25T10:43:56.703Z,68.3
2015-12-25T10:44:56.644Z,66.6
2015-12-25T10:45:56.584Z,63.2
2015-12-25T10:46:56.525Z,63.1
2015-12-25T10:47:56.480Z,60.4
2015-12-25T10:48:56.435Z,59.7
2015-12-25T10:49:56.376Z,62.1
2015-12-25T10:50:56.332Z,65.6
2015-12-25T10:51:56.288Z,69.9
2015-12-25T10:52:56.228Z,70
2015-12-25T10:53:56.169Z,71.9
2015-12-25T10:54:56.124Z,71.1
2015-12-25T10:55:56.064Z,71.4
2015-12-25T10:56:56.020Z,72.1
2015-12-25T10:57:55.961Z,73.3
2015-12-25T10:58:55.917Z,71.6
2015-12-25T10:59:55.856Z,71.1
2015-12-25T11:00:55.797Z,72.5
2015-12-25T11:01:55.753Z,72.1
2015-12-25T11:02:55.693Z,70
2015-12-25T11:03:55.649Z,68.6
2015-12-25T11:04:55.589Z,65.2
2015-12-25T11:05:55.544Z,60.8
2015-12-25T11:06:55.547Z,58
2015-12-25T11:07:55.488Z,58
2015-12-25T11:08:55.413Z,60.8
2015-12-25T11:09:55.337Z,62.4
2015-12-25T11:10:55.308Z,63.4
2015-12-25T11:11:55.264Z,65.7
2015-12-25T11:12:55.189Z,68.9
2015-12-25T11:13:55.130Z,70.2
2015-12-25T11:14:55.085Z,70.1
2015-12-25T11:15:55.029Z,70.4
2015-12-25T11:16:54.957Z,70.4
2015-12-25T11:17:54.883Z,71.3
2015-12-25T11:18:54.826Z,71.2
2015-12-25T11:19:54.785Z,71.6
2015-12-25T11:20:54.939Z,72.8
2015-12-25T11:21:54.640Z,73.2
2015-12-25T11:22:54.592Z,74
2015-12-25T11:23:54.527Z,73.5
2015-12-25T11:24:54.698Z,72.6
2015-12-25T11:25:54.417Z,73.9
2015-12-25T11:26:54.356Z,74.1
2015-12-25T11:27:54.326Z,74.6
2015-12-25T11:28:54.263Z,74.6
2015-12-25T11:29:54.202Z,74.2
2015-12-25T11:30:54.157Z,74.9
2015-12-25T11:31:54.096Z,74.7
2015-12-25T11:32:54.036Z,75.2
2015-12-25T11:33:53.991Z,75.5
2015-12-25T11:34:53.946Z,75.3
2015-12-25T11:35:53.870Z,75.1
2015-12-25T11:36:53.810Z,75.9
2015-12-25T11:37:53.766Z,75.5
2015-12-25T11:38:53.705Z,75.3
2015-12-25T11:39:53.661Z,75.5
2015-12-25T11:40:53.602Z,76.5
2015-12-25T11:41:53.588Z,75.8
2015-12-25T11:42:53.497Z,76.1
2015-12-25T11:43:53.453Z,76.2
2015-12-25T11:44:53.393Z,76
2015-12-25T11:45:53.334Z,76.1
2015-12-25T11:46:53.290Z,74.8
2015-12-25T11:47:53.230Z,74.9
2015-12-25T11:48:53.170Z,76
2015-12-25T11:49:53.126Z,75.3
2015-12-25T11:50:53.082Z,75.5
2015-12-25T11:51:53.007Z,75.5
2015-12-25T11:52:52.962Z,76
2015-12-25T11:53:52.949Z,75.4
2015-12-25T11:54:52.859Z,75.5
2015-12-25T11:55:52.799Z,75.7
2015-12-25T11:56:52.739Z,76
2015-12-25T11:57:52.710Z,75.9
2015-12-25T11:58:52.665Z,75.2
2015-12-25T11:59:52.575Z,75.6
2015-12-25T12:00:52.531Z,75.3
2015-12-25T12:01:52.470Z,75.7
2015-12-25T12:02:52.442Z,75.4
2015-12-25T12:03:52.367Z,76
2015-12-25T12:04:52.323Z,75.8
2015-12-25T12:05:52.264Z,75.8
2015-12-25T12:06:52.219Z,75.7
2015-12-25T12:07:52.156Z,73.5
2015-12-25T12:08:52.347Z,74.2
2015-12-25T12:09:52.053Z,74
2015-12-25T12:10:52.009Z,72.7
2015-12-25T12:11:51.949Z,73.5
2015-12-25T12:12:51.889Z,74.1
2015-12-25T12:13:51.830Z,73.8
2015-12-25T12:14:51.786Z,74.1
2015-12-25T12:15:51.726Z,74.4
2015-12-25T12:16:51.695Z,74.4
2015-12-25T12:17:51.619Z,74.6
2015-12-25T12:18:51.559Z,75
2015-12-25T12:19:51.515Z,75.4
2015-12-25T12:20:51.455Z,74.1
2015-12-25T12:21:51.412Z,73.4
2015-12-25T12:22:51.352Z,73.9
2015-12-25T12:23:51.292Z,74.4
2015-12-25T12:24:51.248Z,74.8
2015-12-25T12:25:51.203Z,74.5
2015-12-25T12:26:51.128Z,74.8
2015-12-25T12:27:50.334Z,74.9
2015-12-25T12:28:51.024Z,75.3
2015-12-25T12:29:50.980Z,73.4
2015-12-25T12:30:50.921Z,74
2015-12-25T12:31:50.861Z,74.1
2015-12-25T12:32:50.817Z,74
2015-12-25T12:33:50.758Z,73.3
2015-12-25T12:34:50.713Z,73.2
2015-12-25T12:35:50.684Z,73.6
2015-12-25T12:36:50.609Z,73.5
2015-12-25T12:37:50.549Z,74
2015-12-25T12:38:50.490Z,72.9
2015-12-25T12:39:50.664Z,73.5
2015-12-25T12:40:50.386Z,73.4
2015-12-25T12:41:50.326Z,73
2015-12-25T12:42:50.282Z,73
2015-12-25T12:43:50.222Z,73.5
2015-12-25T12:44:50.178Z,73.5
2015-12-25T12:45:50.118Z,73
2015-12-25T12:46:50.058Z,73.6
2015-12-25T12:47:50.045Z,73.3
2015-12-25T12:48:49.955Z,73.6
2015-12-25T12:49:49.894Z,73.2
2015-12-25T12:50:49.835Z,73.9
2015-12-25T12:51:49.791Z,73.9
2015-12-25T12:52:49.730Z,74.5
2015-12-25T12:53:49.686Z,74.3
2015-12-25T12:54:49.626Z,74.1
2015-12-25T12:55:49.568Z,74.4
2015-12-25T12:56:49.523Z,74.4
2015-12-25T12:57:49.463Z,75
2015-12-25T12:58:49.403Z,73.8
2015-12-25T12:59:49.390Z,74.2
2015-12-25T13:00:49.299Z,74.3
2015-12-25T13:01:49.255Z,74.2
2015-12-25T13:02:49.429Z,74.3
2015-12-25T13:03:49.151Z,74.9
2015-12-25T13:04:49.091Z,74.6
2015-12-25T13:05:49.031Z,74.4
2015-12-25T13:06:49.034Z,74.7
2015-12-25T13:07:48.927Z,74.7
2015-12-25T13:08:48.915Z,75
2015-12-25T13:09:48.823Z,75.3
2015-12-25T13:10:48.764Z,74.6
2015-12-25T13:11:48.719Z,74
2015-12-25T13:12:48.894Z,74.5
2015-12-25T13:13:48.600Z,75.2
2015-12-25T13:14:48.555Z,74.7
2015-12-25T13:15:48.496Z,75
2015-12-25T13:16:48.452Z,74.9
2015-12-25T13:17:48.470Z,74.7
2015-12-25T13:18:48.567Z,74.7
2015-12-25T13:19:48.288Z,74.7
2015-12-25T13:20:48.244Z,74.3
2015-12-25T13:21:48.199Z,74.6
2015-12-25T13:22:48.358Z,74.6